Latest Weather Observations for Hervey Bay

IDQ60801

Issued at 10:02 am EST Saturday 2 July 2016 (issued every 30 minutes, with the page automatically refreshed every 10 minutes)

About weather observations | Map of weather stations | Latest weather observations for QLD | Other Formats
Station Details ID: 040405 Name: HERVEY BAY AIRPORT Lat: -25.32 Lon: 152.88 Height: 12.98 m
Data from the previous 72 hours. | See also: Recent months at Hervey Bay
Date/Time
EST
Temp
°C
App
Temp
°C
Dew
Point
°C
Rel
Hum
%
Delta-T
°C
Wind Press
QNH
hPa
Press
MSL
hPa
Rain since
9am
mm
Dir  Spd
km/h
Gust
km/h
Spd
kts
Gust
kts
02/10:00am 16.1 12.1 5.1 48 5.2 SW 15 20 8 11 1024.1 1024.1 0.0
02/09:30am 14.9 11.3 5.1 52 4.6 SSW 13 19 7 10 1024.4 1024.4 0.0
02/09:00am 13.2 8.9 5.1 58 3.7 SSW 17 26 9 14 1024.3 1024.3 0.2
02/08:30am 12.1 8.5 5.0 62 3.3 SW 13 17 7 9 1024.2 1024.2 0.2
02/08:00am 11.1 7.5 5.0 66 2.8 SSW 13 19 7 10 1024.0 1024.0 0.2
02/07:30am 9.7 6.8 4.9 72 2.2 SSW 9 13 5 7 1023.7 1023.7 0.2
02/07:00am 8.3 5.4 4.9 79 1.5 SSW 9 11 5 6 1023.2 1023.2 0.2
02/06:30am 8.7 6.4 4.7 76 1.8 SW 6 9 3 5 1022.7 1022.7 0.2
02/06:00am 9.6 6.8 5.2 74 2.0 SW 9 15 5 8 1022.3 1022.3 0.2
02/05:30am 10.1 6.5 5.1 71 2.3 SW 13 20 7 11 1021.8 1021.8 0.2
02/05:00am 10.4 6.9 5.4 71 2.3 SSW 13 20 7 11 1021.6 1021.6 0.2
02/04:30am 10.6 7.5 5.4 70 2.4 SSW 11 17 6 9 1021.4 1021.4 0.2
02/04:00am 11.5 7.2 5.2 65 2.9 SW 17 26 9 14 1021.2 1021.2 0.2
02/03:30am 12.0 7.4 5.4 64 3.1 SW 19 24 10 13 1021.5 1021.5 0.2
02/03:00am 11.6 7.8 5.9 68 2.6 SW 15 20 8 11 1021.5 1021.5 0.2
02/02:30am 12.2 8.0 5.8 65 3.0 SW 17 22 9 12 1021.3 1021.3 0.2
02/02:00am 10.9 7.5 6.1 72 2.2 SW 13 20 7 11 1021.4 1021.4 0.2
02/01:30am 9.3 6.3 6.0 80 1.5 SW 11 15 6 8 1021.7 1021.7 0.2
02/01:00am 8.5 6.0 6.5 87 0.9 SW 9 13 5 7 1021.8 1021.8 0.2
02/12:30am 7.8 5.6 6.3 90 0.7 SW 7 9 4 5 1022.1 1022.1 0.2
02/12:00am 8.5 6.3 6.3 86 1.0 SW 7 9 4 5 1021.9 1021.9 0.2
 
Date/Time
EST
Temp
°C
App
Temp
°C
Dew
Point
°C
Rel
Hum
%
Delta-T
°C
Wind Press
QNH
hPa
Press
MSL
hPa
Rain since
9am
mm
Dir  Spd
km/h
Gust
km/h
Spd
kts
Gust
kts
01/11:30pm 9.5 7.0 6.4 81 1.4 SW 9 9 5 5 1021.9 1021.9 0.2
01/11:00pm 9.0 6.5 6.4 84 1.2 SW 9 11 5 6 1021.6 1021.6 0.2
01/10:30pm 8.9 6.5 6.9 87 0.9 WSW 9 13 5 7 1021.7 1021.7 0.2
01/10:00pm 8.6 6.2 6.9 89 0.8 SW 9 11 5 6 1021.9 1021.9 0.2
01/09:30pm 8.8 7.0 7.3 90 0.7 WSW 6 7 3 4 1021.7 1021.7 0.2
01/09:00pm 9.2 7.0 7.8 91 0.7 SW 9 11 5 6 1021.4 1021.4 0.2
01/08:30pm 9.7 7.9 8.1 90 0.8 SW 7 7 4 4 1021.4 1021.4 0.2
01/08:00pm 10.2 8.7 8.6 90 0.8 WSW 6 7 3 4 1021.2 1021.2 0.2
01/07:30pm 10.6 9.0 8.9 89 0.8 SW 7 9 4 5 1020.9 1020.9 0.2
01/07:00pm 11.0 9.4 8.9 87 1.0 SW 7 9 4 5 1020.4 1020.4 0.2
01/06:30pm 12.1 12.0 9.5 84 1.3 CALM 0 0 0 0 1020.1 1020.1 0.2
01/06:00pm 13.6 13.8 10.6 82 1.6 CALM 0 6 0 3 1019.5 1019.5 0.2
01/05:30pm 15.5 15.9 11.1 75 2.3 CALM 0 0 0 0 1019.1 1019.1 0.2
01/05:00pm 19.0 18.7 12.7 67 3.5 E 6 7 3 4 1018.6 1018.6 0.2
01/04:30pm 22.2 20.1 6.8 37 7.9 SW 7 11 4 6 1018.3 1018.3 0.2
01/04:00pm 22.8 20.0 7.0 36 8.1 SW 11 15 6 8 1018.0 1018.0 0.2
01/03:30pm 23.4 20.1 6.2 33 8.8 SW 13 20 7 11 1017.7 1017.7 0.2
01/03:00pm 23.6 20.5 7.3 35 8.5 SW 13 20 7 11 1017.5 1017.5 0.2
01/02:30pm 23.8 20.9 8.2 37 8.3 WSW 13 17 7 9 1017.7 1017.7 0.2
01/02:00pm 23.8 21.4 8.6 38 8.1 SSW 11 26 6 14 1017.7 1017.7 0.2
01/01:30pm 22.0 20.4 8.9 43 7.0 W 7 15 4 8 1017.9 1017.9 0.2
01/01:00pm 22.6 20.1 9.7 44 7.0 W 13 20 7 11 1018.1 1018.1 0.2
01/12:30pm 23.1 21.3 10.9 46 6.8 WSW 11 20 6 11 1018.4 1018.4 0.2
01/12:00pm 22.7 20.6 11.1 48 6.4 WSW 13 19 7 10 1018.9 1018.9 0.2
01/11:30am 20.9 20.2 11.3 54 5.3 E 6 11 3 6 1019.5 1019.5 0.2
01/11:00am 21.2 21.7 15.5 70 3.4 ENE 7 11 4 6 1020.0 1020.0 0.0
01/10:30am 21.6 20.9 14.3 63 4.3 WNW 11 17 6 9 1020.5 1020.5 0.0
01/10:00am 19.4 18.7 14.2 72 3.0 WNW 11 17 6 9 1020.9 1020.9 0.0
01/09:30am 17.9 18.0 15.5 86 1.4 WSW 9 13 5 7 1021.2 1021.2 0.0
01/09:00am 16.3 17.9 15.0 92 0.7 CALM 0 7 0 4 1021.3 1021.3 0.0
01/08:30am 15.3 16.7 14.5 95 0.5 CALM 0 0 0 0 1021.4 1021.4 0.0
01/08:28am 15.2 16.6 14.4 95 0.5 CALM 0 0 0 0 1021.4 1021.4 0.0
01/08:00am 14.1 15.2 13.5 96 0.3 CALM 0 0 0 0 1021.1 1021.1 0.0
01/07:30am 13.3 14.1 12.5 95 0.4 CALM 0 0 0 0 1020.9 1020.9 0.0
01/07:00am 12.4 12.9 11.6 95 0.4 CALM 0 0 0 0 1020.6 1020.6 0.0
01/06:30am 12.5 13.0 11.7 95 0.4 CALM 0 0 0 0 1020.2 1020.2 0.0
01/06:00am 12.6 13.2 11.8 95 0.4 CALM 0 0 0 0 1020.0 1020.0 0.0
01/05:30am 13.0 12.5 12.2 95 0.4 SE 6 7 3 4 1019.9 1019.8 0.0
01/05:00am 13.3 13.0 12.7 96 0.3 SW 6 9 3 5 1019.8 1019.7 0.0
01/04:30am 12.8 12.1 12.0 95 0.4 SW 7 11 4 6 1019.6 1019.5 0.0
01/04:00am 11.9 10.6 11.1 95 0.4 SSW 9 13 5 7 1019.4 1019.3 0.0
01/03:35am 10.8 8.8 10.0 95 0.4 SSW 11 13 6 7 1019.4 1019.3 0.0
01/03:30am 10.2 8.4 9.3 94 0.4 SSW 9 13 5 7 1019.3 1019.2 0.0
01/03:00am 9.3 8.5 8.2 93 0.5 SSE 2 7 1 4 1019.2 1019.1 0.0
01/02:58am 9.3 8.9 8.2 93 0.5 CALM 0 0 0 0 1019.1 1019.0 0.0
01/02:30am 9.4 8.6 8.3 93 0.5 SE 2 6 1 3 1019.1 1019.0 0.0
01/02:27am 9.5 8.8 8.4 93 0.5 SE 2 6 1 3 1019.1 1019.0 0.0
01/02:19am 9.6 9.3 8.5 93 0.5 CALM 0 0 0 0 1019.1 1019.0 0.0
01/02:00am 9.7 9.4 8.6 93 0.5 CALM 0 0 0 0 1019.3 1019.2 0.0
01/01:39am 9.7 9.4 8.6 93 0.5 CALM 0 0 0 0 1019.5 1019.4 0.0
01/01:31am 9.6 9.3 8.5 93 0.5 CALM 0 0 0 0 1019.6 1019.5 0.0
01/01:30am 9.7 9.4 8.6 93 0.5 CALM 0 0 0 0 1019.6 1019.5 0.0
01/01:21am 9.9 9.6 8.8 93 0.5 CALM 0 0 0 0 1019.7 1019.6 0.0
01/01:00am 9.8 9.5 8.6 92 0.6 CALM 0 0 0 0 1019.9 1019.8 0.0
01/12:49am 9.9 9.6 8.8 93 0.5 CALM 0 0 0 0 1019.9 1019.8 0.0
01/12:30am 10.0 9.8 8.9 93 0.5 CALM 0 0 0 0 1020.1 1020.1 0.0
01/12:00am 10.0 9.7 8.8 92 0.6 CALM 0 0 0 0 1020.2 1020.2 0.0
 
Date/Time
EST
Temp
°C
App
Temp
°C
Dew
Point
°C
Rel
Hum
%
Delta-T
°C
Wind Press
QNH
hPa
Press
MSL
hPa
Rain since
9am
mm
Dir  Spd
km/h
Gust
km/h
Spd
kts
Gust
kts
30/11:53pm 10.0 9.7 8.8 92 0.6 CALM 0 0 0 0 1020.3 1020.3 0.0
30/11:30pm 10.1 9.9 8.9 92 0.6 CALM 0 0 0 0 1020.5 1020.5 0.0
30/11:00pm 10.3 10.1 8.9 91 0.7 CALM 0 0 0 0 1020.8 1020.8 0.0
30/10:30pm 10.6 10.4 9.2 91 0.7 CALM 0 0 0 0 1021.0 1021.0 0.0
30/10:00pm 11.0 10.9 9.4 90 0.8 CALM 0 0 0 0 1021.0 1021.0 0.0
30/09:30pm 11.1 11.0 9.5 90 0.8 CALM 0 0 0 0 1021.1 1021.1 0.0
30/09:00pm 11.5 11.5 9.9 90 0.8 CALM 0 0 0 0 1021.1 1021.1 0.0
30/08:30pm 11.9 12.0 10.1 89 0.9 CALM 0 0 0 0 1021.2 1021.2 0.0
30/08:00pm 12.5 12.7 10.7 89 0.9 CALM 0 0 0 0 1021.2 1021.2 0.0
30/07:30pm 13.1 13.4 11.0 87 1.1 CALM 0 0 0 0 1021.0 1021.0 0.0
30/07:00pm 13.9 14.0 11.6 86 1.2 E 2 6 1 3 1020.9 1020.9 0.0
30/06:30pm 16.1 15.8 13.4 84 1.5 E 7 9 4 5 1020.6 1020.6 0.0
30/06:00pm 16.8 16.3 13.9 83 1.6 E 9 11 5 6 1020.5 1020.5 0.0
30/05:30pm 16.8 16.1 13.1 79 2.1 ESE 9 13 5 7 1020.2 1020.2 0.0
30/05:00pm 19.0 17.8 14.1 73 2.8 E 13 15 7 8 1020.1 1020.1 0.0
30/04:30pm 20.3 18.9 13.5 65 3.9 E 13 15 7 8 1020.1 1020.1 0.0
30/04:00pm 21.4 19.9 13.1 59 4.7 ESE 13 17 7 9 1020.0 1020.0 0.0
30/03:30pm 21.5 19.6 12.9 58 4.9 ESE 15 19 8 10 1020.0 1020.0 0.0
30/03:00pm 21.0 19.4 12.9 60 4.6 ESE 13 17 7 9 1020.1 1020.1 0.0
30/02:30pm 22.1 20.4 12.6 55 5.4 E 13 19 7 10 1020.0 1020.0 0.0
30/02:00pm 21.2 19.5 12.3 57 5.0 SE 13 22 7 12 1020.2 1020.2 0.0
30/01:30pm 22.7 20.9 12.0 50 6.0 ESE 13 20 7 11 1020.5 1020.5 0.0
30/01:00pm 22.6 21.3 12.5 53 5.7 ESE 11 20 6 11 1021.0 1021.0 0.0
30/12:30pm 22.4 21.2 12.9 55 5.4 SE 11 24 6 13 1021.3 1021.3 0.0
30/12:00pm 21.8 20.9 13.7 60 4.7 SSE 11 17 6 9 1021.8 1021.8 0.0
30/11:30am 21.2 20.2 13.4 61 4.5 SSW 11 17 6 9 1022.2 1022.2 0.0
30/11:00am 20.7 19.0 13.6 64 4.1 SSW 15 20 8 11 1022.6 1022.6 0.0
30/10:30am 19.6 18.0 12.8 65 3.8 S 13 17 7 9 1023.0 1023.0 0.0
30/10:00am 18.5 16.7 12.0 66 3.6 SSW 13 20 7 11 1023.3 1023.3 0.0
30/09:30am 16.9 14.5 11.4 70 3.0 SSW 15 19 8 10 1023.5 1023.5 0.0
30/09:00am 15.2 12.9 10.6 74 2.4 SSW 13 19 7 10 1023.5 1023.5 0.0
30/08:30am 13.3 10.8 9.7 79 1.8 SSW 13 15 7 8 1023.4 1023.4 0.0
30/08:00am 12.1 9.7 8.8 80 1.6 SSW 11 17 6 9 1023.3 1023.3 0.0
30/07:30am 11.3 9.4 8.9 85 1.2 SW 9 13 5 7 1023.2 1023.2 0.0
30/07:00am 10.2 7.7 8.3 88 0.9 SSW 11 15 6 8 1022.7 1022.7 0.0
30/06:30am 10.0 7.5 8.3 89 0.8 SSW 11 15 6 8 1022.7 1022.7 0.0
30/06:00am 10.3 7.4 8.2 87 1.0 SSW 13 17 7 9 1022.6 1022.6 0.0
30/05:30am 10.7 7.9 8.6 87 1.0 SSW 13 17 7 9 1022.3 1022.3 0.0
30/05:00am 10.7 8.0 8.8 88 0.9 SW 13 17 7 9 1022.2 1022.2 0.0
30/04:30am 10.7 8.0 8.8 88 0.9 SW 13 17 7 9 1022.1 1022.1 0.0
30/04:00am 10.8 8.5 9.1 89 0.8 SW 11 17 6 9 1022.1 1022.1 0.0
30/03:30am 11.0 8.4 9.4 90 0.8 SW 13 15 7 8 1022.1 1022.1 0.0
30/03:00am 10.9 8.7 9.5 91 0.7 SW 11 13 6 7 1022.3 1022.3 0.0
30/02:30am 10.8 9.0 9.6 92 0.6 SW 9 11 5 6 1022.6 1022.6 0.0
30/02:00am 10.8 9.0 9.6 92 0.6 SW 9 13 5 7 1022.9 1022.9 0.0
30/01:30am 10.8 9.0 9.6 92 0.6 SW 9 13 5 7 1023.4 1023.4 0.0
30/01:00am 10.8 9.4 9.6 92 0.6 SW 7 9 4 5 1023.6 1023.6 0.0
30/12:30am 11.1 9.4 10.0 93 0.6 SW 9 13 5 7 1023.7 1023.7 0.0
30/12:00am 11.3 9.4 10.4 94 0.5 SSW 11 13 6 7 1023.9 1023.9 0.0
 
Date/Time
EST
Temp
°C
App
Temp
°C
Dew
Point
°C
Rel
Hum
%
Delta-T
°C
Wind Press
QNH
hPa
Press
MSL
hPa
Rain since
9am
mm
Dir  Spd
km/h
Gust
km/h
Spd
kts
Gust
kts
29/11:30pm 10.8 9.4 9.7 93 0.6 SSW 7 9 4 5 1024.3 1024.3 0.0
29/11:00pm 10.5 9.1 9.4 93 0.5 SSW 7 9 4 5 1024.4 1024.4 0.0
29/10:30pm 10.6 8.8 9.5 93 0.6 SW 9 11 5 6 1024.7 1024.7 0.0
29/10:00pm 9.7 8.1 7.8 88 0.9 SW 6 7 3 4 1024.8 1024.8 0.0
29/09:30pm 10.7 9.0 8.5 86 1.1 SSW 7 9 4 5 1025.0 1025.0 0.0
29/09:00pm 12.5 10.9 10.2 86 1.2 S 9 11 5 6 1024.9 1024.9 0.0
29/08:30pm 13.8 12.3 12.0 89 1.0 S 11 15 6 8 1024.8 1024.8 0.0
29/08:00pm 10.8 9.3 9.2 90 0.8 S 7 11 4 6 1024.9 1024.9 0.0
29/07:30pm 11.5 10.1 9.6 88 1.0 S 7 9 4 5 1025.1 1025.1 0.0
29/07:00pm 12.8 11.6 9.6 81 1.6 SSE 6 9 3 5 1025.0 1025.0 0.0
29/06:30pm 15.2 14.4 11.6 79 1.9 SSE 7 11 4 6 1024.7 1024.7 0.0
29/06:00pm 16.0 14.9 11.8 76 2.3 SSE 9 15 5 8 1024.2 1024.2 0.0
29/05:30pm 16.7 14.8 11.8 73 2.7 SE 13 17 7 9 1023.9 1023.9 0.0
29/05:00pm 17.2 15.6 11.5 69 3.1 SE 11 15 6 8 1023.8 1023.8 0.0
29/04:30pm 18.3 16.3 11.4 64 3.8 SE 13 20 7 11 1023.6 1023.6 0.0
29/04:00pm 19.0 16.2 11.3 61 4.2 SE 17 24 9 13 1023.2 1023.2 0.0
29/03:30pm 19.9 17.9 11.4 58 4.7 SE 13 20 7 11 1023.2 1023.2 0.0
29/03:00pm 20.2 17.4 11.4 57 4.8 SE 17 24 9 13 1022.9 1022.9 0.0
29/02:30pm 19.9 16.4 10.3 54 5.2 SE 19 26 10 14 1022.7 1022.7 0.0
29/02:00pm 20.2 16.6 10.6 54 5.2 SSE 20 30 11 16 1022.7 1022.7 0.0
29/01:30pm 19.9 16.4 10.3 54 5.2 SE 19 28 10 15 1022.7 1022.7 0.0
29/01:00pm 20.3 18.1 10.7 54 5.2 S 13 20 7 11 1022.9 1022.9 0.0
29/12:30pm 19.7 16.5 9.9 53 5.2 S 17 24 9 13 1023.3 1023.3 0.0
29/12:00pm 19.3 16.4 9.8 54 5.0 S 15 24 8 13 1024.0 1024.0 0.0
29/11:30am 18.5 15.1 9.0 54 5.0 S 17 24 9 13 1024.7 1024.7 0.0
29/11:00am 18.0 13.9 7.7 51 5.2 S 19 28 10 15 1025.3 1025.3 0.0
29/10:30am 17.8 14.4 7.8 52 5.1 S 15 24 8 13 1025.6 1025.6 0.0

Other Formats:

Comma delimited format used in spreadsheet applications
http://www.bom.gov.au/fwo/IDQ60801/IDQ60801.95565.axf

JavaScript Object Notation format (JSON) in row-major order
http://www.bom.gov.au/fwo/IDQ60801/IDQ60801.95565.json